sensor_id;sensor_type;location;lat;lon;timestamp;P1;durP1;ratioP1;P2;durP2;ratioP2
43793;SDS011;29414;44.798;20.366;2022-09-03T00:01:19;8.15;;;7.30;;
43793;SDS011;29414;44.798;20.366;2022-09-03T00:05:25;7.15;;;6.55;;
43793;SDS011;29414;44.798;20.366;2022-09-03T00:09:49;8.07;;;6.70;;
43793;SDS011;29414;44.798;20.366;2022-09-03T00:18:04;9.48;;;6.30;;
43793;SDS011;29414;44.798;20.366;2022-09-03T00:22:07;10.95;;;6.68;;
43793;SDS011;29414;44.798;20.366;2022-09-03T00:30:11;10.24;;;6.76;;
43793;SDS011;29414;44.798;20.366;2022-09-03T00:38:31;8.25;;;6.28;;
43793;SDS011;29414;44.798;20.366;2022-09-03T00:46:51;7.50;;;6.45;;
43793;SDS011;29414;44.798;20.366;2022-09-03T00:50:57;8.45;;;6.22;;
43793;SDS011;29414;44.798;20.366;2022-09-03T01:03:09;7.43;;;6.75;;
43793;SDS011;29414;44.798;20.366;2022-09-03T01:07:14;9.38;;;8.27;;
43793;SDS011;29414;44.798;20.366;2022-09-03T01:11:30;9.02;;;7.90;;
43793;SDS011;29414;44.798;20.366;2022-09-03T01:32:29;6.38;;;5.68;;
43793;SDS011;29414;44.798;20.366;2022-09-03T01:40:39;9.75;;;7.32;;
43793;SDS011;29414;44.798;20.366;2022-09-03T02:01:40;10.20;;;7.20;;
43793;SDS011;29414;44.798;20.366;2022-09-03T02:05:42;14.13;;;6.75;;
43793;SDS011;29414;44.798;20.366;2022-09-03T02:09:43;8.95;;;6.93;;
43793;SDS011;29414;44.798;20.366;2022-09-03T02:13:44;10.25;;;6.47;;
43793;SDS011;29414;44.798;20.366;2022-09-03T02:17:47;7.78;;;7.00;;
43793;SDS011;29414;44.798;20.366;2022-09-03T02:21:50;6.85;;;6.00;;
43793;SDS011;29414;44.798;20.366;2022-09-03T02:25:52;9.73;;;7.00;;
43793;SDS011;29414;44.798;20.366;2022-09-03T02:29:54;7.97;;;6.28;;
43793;SDS011;29414;44.798;20.366;2022-09-03T02:33:55;7.20;;;6.45;;
43793;SDS011;29414;44.798;20.366;2022-09-03T02:37:56;10.88;;;7.03;;
43793;SDS011;29414;44.798;20.366;2022-09-03T02:42:08;7.63;;;6.78;;
43793;SDS011;29414;44.798;20.366;2022-09-03T02:46:11;8.25;;;7.10;;
43793;SDS011;29414;44.798;20.366;2022-09-03T02:50:14;10.73;;;7.50;;
43793;SDS011;29414;44.798;20.366;2022-09-03T02:54:14;10.57;;;7.18;;
43793;SDS011;29414;44.798;20.366;2022-09-03T02:58:14;8.00;;;6.32;;
43793;SDS011;29414;44.798;20.366;2022-09-03T03:02:14;7.93;;;6.70;;
43793;SDS011;29414;44.798;20.366;2022-09-03T03:06:15;9.57;;;7.10;;
43793;SDS011;29414;44.798;20.366;2022-09-03T03:10:15;10.07;;;7.80;;
43793;SDS011;29414;44.798;20.366;2022-09-03T03:14:16;12.45;;;7.10;;
43793;SDS011;29414;44.798;20.366;2022-09-03T03:18:16;9.45;;;8.07;;
43793;SDS011;29414;44.798;20.366;2022-09-03T03:22:16;11.88;;;8.55;;
43793;SDS011;29414;44.798;20.366;2022-09-03T03:26:18;13.12;;;8.74;;
43793;SDS011;29414;44.798;20.366;2022-09-03T03:30:18;9.98;;;8.75;;
43793;SDS011;29414;44.798;20.366;2022-09-03T03:34:19;8.95;;;7.95;;
43793;SDS011;29414;44.798;20.366;2022-09-03T03:38:20;8.18;;;7.47;;
43793;SDS011;29414;44.798;20.366;2022-09-03T03:42:20;12.60;;;8.05;;
43793;SDS011;29414;44.798;20.366;2022-09-03T03:46:22;10.30;;;8.23;;
43793;SDS011;29414;44.798;20.366;2022-09-03T03:50:22;15.43;;;8.88;;
43793;SDS011;29414;44.798;20.366;2022-09-03T03:54:22;9.60;;;8.35;;
43793;SDS011;29414;44.798;20.366;2022-09-03T03:58:23;13.23;;;7.75;;
43793;SDS011;29414;44.798;20.366;2022-09-03T04:02:23;9.65;;;8.32;;
43793;SDS011;29414;44.798;20.366;2022-09-03T04:06:23;12.50;;;7.93;;
43793;SDS011;29414;44.798;20.366;2022-09-03T04:10:24;9.00;;;8.15;;
43793;SDS011;29414;44.798;20.366;2022-09-03T04:14:24;10.38;;;7.75;;
43793;SDS011;29414;44.798;20.366;2022-09-03T04:18:26;12.05;;;8.95;;
43793;SDS011;29414;44.798;20.366;2022-09-03T04:22:27;19.95;;;17.05;;
43793;SDS011;29414;44.798;20.366;2022-09-03T04:26:28;16.05;;;12.57;;
43793;SDS011;29414;44.798;20.366;2022-09-03T04:30:31;17.33;;;14.40;;
43793;SDS011;29414;44.798;20.366;2022-09-03T04:34:31;18.77;;;16.63;;
43793;SDS011;29414;44.798;20.366;2022-09-03T04:38:32;13.43;;;9.73;;
43793;SDS011;29414;44.798;20.366;2022-09-03T04:42:32;11.07;;;9.27;;
43793;SDS011;29414;44.798;20.366;2022-09-03T04:46:33;12.86;;;9.56;;
43793;SDS011;29414;44.798;20.366;2022-09-03T04:50:33;14.13;;;11.30;;
43793;SDS011;29414;44.798;20.366;2022-09-03T04:54:34;10.93;;;8.38;;
43793;SDS011;29414;44.798;20.366;2022-09-03T04:58:34;11.25;;;9.93;;
43793;SDS011;29414;44.798;20.366;2022-09-03T05:02:35;11.35;;;7.65;;
43793;SDS011;29414;44.798;20.366;2022-09-03T05:06:35;9.32;;;8.02;;
43793;SDS011;29414;44.798;20.366;2022-09-03T05:10:36;9.38;;;8.35;;
43793;SDS011;29414;44.798;20.366;2022-09-03T05:14:36;11.25;;;7.88;;
43793;SDS011;29414;44.798;20.366;2022-09-03T05:18:39;10.27;;;8.88;;
43793;SDS011;29414;44.798;20.366;2022-09-03T05:22:41;12.35;;;8.55;;
43793;SDS011;29414;44.798;20.366;2022-09-03T05:26:41;10.48;;;8.64;;
43793;SDS011;29414;44.798;20.366;2022-09-03T05:30:41;9.98;;;8.43;;
43793;SDS011;29414;44.798;20.366;2022-09-03T05:34:42;13.70;;;8.63;;
43793;SDS011;29414;44.798;20.366;2022-09-03T05:38:43;9.68;;;7.60;;
43793;SDS011;29414;44.798;20.366;2022-09-03T05:42:43;9.15;;;8.20;;
43793;SDS011;29414;44.798;20.366;2022-09-03T05:46:43;9.15;;;7.38;;
43793;SDS011;29414;44.798;20.366;2022-09-03T05:50:44;12.32;;;9.63;;
43793;SDS011;29414;44.798;20.366;2022-09-03T05:54:44;12.70;;;9.07;;
43793;SDS011;29414;44.798;20.366;2022-09-03T05:58:49;10.60;;;9.52;;
43793;SDS011;29414;44.798;20.366;2022-09-03T06:02:50;13.70;;;8.55;;
43793;SDS011;29414;44.798;20.366;2022-09-03T06:06:51;15.43;;;8.48;;
43793;SDS011;29414;44.798;20.366;2022-09-03T06:10:56;9.60;;;8.68;;
43793;SDS011;29414;44.798;20.366;2022-09-03T06:14:56;10.55;;;9.43;;
43793;SDS011;29414;44.798;20.366;2022-09-03T06:18:57;12.07;;;10.55;;
43793;SDS011;29414;44.798;20.366;2022-09-03T06:22:57;10.70;;;9.65;;
43793;SDS011;29414;44.798;20.366;2022-09-03T06:26:58;9.73;;;8.75;;
43793;SDS011;29414;44.798;20.366;2022-09-03T06:30:58;14.48;;;10.60;;
43793;SDS011;29414;44.798;20.366;2022-09-03T06:34:58;8.43;;;7.65;;
43793;SDS011;29414;44.798;20.366;2022-09-03T06:38:59;9.10;;;8.20;;
43793;SDS011;29414;44.798;20.366;2022-09-03T06:42:59;6.97;;;6.18;;
43793;SDS011;29414;44.798;20.366;2022-09-03T06:47:01;13.18;;;8.45;;
43793;SDS011;29414;44.798;20.366;2022-09-03T06:55:05;9.10;;;8.00;;
43793;SDS011;29414;44.798;20.366;2022-09-03T06:59:12;7.53;;;6.70;;
43793;SDS011;29414;44.798;20.366;2022-09-03T07:03:13;8.25;;;7.00;;
43793;SDS011;29414;44.798;20.366;2022-09-03T07:07:13;7.30;;;6.60;;
43793;SDS011;29414;44.798;20.366;2022-09-03T07:11:16;7.75;;;6.95;;
43793;SDS011;29414;44.798;20.366;2022-09-03T07:15:18;7.30;;;5.05;;
43793;SDS011;29414;44.798;20.366;2022-09-03T07:19:18;8.27;;;6.15;;
43793;SDS011;29414;44.798;20.366;2022-09-03T07:23:19;5.72;;;4.25;;
43793;SDS011;29414;44.798;20.366;2022-09-03T07:27:19;4.85;;;4.07;;
43793;SDS011;29414;44.798;20.366;2022-09-03T07:31:21;7.15;;;3.50;;
43793;SDS011;29414;44.798;20.366;2022-09-03T07:35:24;6.15;;;3.78;;
43793;SDS011;29414;44.798;20.366;2022-09-03T07:39:25;6.18;;;4.60;;
43793;SDS011;29414;44.798;20.366;2022-09-03T07:43:26;5.82;;;3.92;;
43793;SDS011;29414;44.798;20.366;2022-09-03T07:47:27;6.93;;;4.55;;
43793;SDS011;29414;44.798;20.366;2022-09-03T07:51:30;4.88;;;4.00;;
43793;SDS011;29414;44.798;20.366;2022-09-03T07:55:31;5.13;;;3.60;;
43793;SDS011;29414;44.798;20.366;2022-09-03T07:59:31;6.22;;;5.05;;
43793;SDS011;29414;44.798;20.366;2022-09-03T08:03:32;4.18;;;3.47;;
43793;SDS011;29414;44.798;20.366;2022-09-03T08:07:32;3.90;;;2.86;;
43793;SDS011;29414;44.798;20.366;2022-09-03T08:11:34;3.72;;;2.90;;
43793;SDS011;29414;44.798;20.366;2022-09-03T08:15:35;6.97;;;3.40;;
43793;SDS011;29414;44.798;20.366;2022-09-03T08:19:36;3.97;;;2.75;;
43793;SDS011;29414;44.798;20.366;2022-09-03T08:23:37;3.55;;;2.65;;
43793;SDS011;29414;44.798;20.366;2022-09-03T08:27:38;4.93;;;3.30;;
43793;SDS011;29414;44.798;20.366;2022-09-03T08:31:38;5.30;;;3.13;;
43793;SDS011;29414;44.798;20.366;2022-09-03T08:35:39;5.20;;;3.53;;
43793;SDS011;29414;44.798;20.366;2022-09-03T08:39:39;3.60;;;2.72;;
43793;SDS011;29414;44.798;20.366;2022-09-03T08:48:05;3.95;;;2.88;;
43793;SDS011;29414;44.798;20.366;2022-09-03T08:52:19;4.50;;;2.92;;
43793;SDS011;29414;44.798;20.366;2022-09-03T08:56:23;3.22;;;2.90;;
43793;SDS011;29414;44.798;20.366;2022-09-03T09:00:23;5.50;;;2.28;;
43793;SDS011;29414;44.798;20.366;2022-09-03T09:16:50;2.78;;;1.95;;
43793;SDS011;29414;44.798;20.366;2022-09-03T09:24:52;1.73;;;1.63;;
43793;SDS011;29414;44.798;20.366;2022-09-03T09:28:55;3.88;;;2.30;;
43793;SDS011;29414;44.798;20.366;2022-09-03T09:32:56;5.32;;;2.17;;
43793;SDS011;29414;44.798;20.366;2022-09-03T09:36:57;2.30;;;2.00;;
43793;SDS011;29414;44.798;20.366;2022-09-03T09:41:07;3.10;;;1.83;;
43793;SDS011;29414;44.798;20.366;2022-09-03T09:45:08;5.45;;;2.17;;
43793;SDS011;29414;44.798;20.366;2022-09-03T09:49:25;2.20;;;2.00;;
43793;SDS011;29414;44.798;20.366;2022-09-03T09:53:28;4.38;;;2.33;;
43793;SDS011;29414;44.798;20.366;2022-09-03T09:57:29;2.35;;;1.77;;
43793;SDS011;29414;44.798;20.366;2022-09-03T10:01:29;2.08;;;1.90;;
43793;SDS011;29414;44.798;20.366;2022-09-03T10:05:31;1.45;;;1.35;;
43793;SDS011;29414;44.798;20.366;2022-09-03T10:09:35;6.47;;;2.60;;
43793;SDS011;29414;44.798;20.366;2022-09-03T10:13:38;4.35;;;1.85;;
43793;SDS011;29414;44.798;20.366;2022-09-03T10:17:47;4.10;;;1.85;;
43793;SDS011;29414;44.798;20.366;2022-09-03T10:30:06;2.30;;;2.00;;
43793;SDS011;29414;44.798;20.366;2022-09-03T10:46:43;3.20;;;2.40;;
43793;SDS011;29414;44.798;20.366;2022-09-03T10:50:46;9.35;;;2.83;;
43793;SDS011;29414;44.798;20.366;2022-09-03T10:54:51;3.17;;;2.25;;
43793;SDS011;29414;44.798;20.366;2022-09-03T11:03:02;6.28;;;2.38;;
43793;SDS011;29414;44.798;20.366;2022-09-03T11:07:07;5.03;;;1.98;;
43793;SDS011;29414;44.798;20.366;2022-09-03T11:19:33;4.00;;;2.30;;
43793;SDS011;29414;44.798;20.366;2022-09-03T11:23:45;4.03;;;2.55;;
43793;SDS011;29414;44.798;20.366;2022-09-03T11:35:59;6.47;;;2.30;;
43793;SDS011;29414;44.798;20.366;2022-09-03T11:44:19;3.13;;;2.20;;
43793;SDS011;29414;44.798;20.366;2022-09-03T11:48:41;2.55;;;2.05;;
43793;SDS011;29414;44.798;20.366;2022-09-03T11:52:39;5.75;;;2.53;;
43793;SDS011;29414;44.798;20.366;2022-09-03T11:56:40;3.25;;;2.00;;
43793;SDS011;29414;44.798;20.366;2022-09-03T12:00:41;4.32;;;2.33;;
43793;SDS011;29414;44.798;20.366;2022-09-03T12:04:46;2.30;;;1.90;;
43793;SDS011;29414;44.798;20.366;2022-09-03T12:12:56;2.13;;;1.90;;
43793;SDS011;29414;44.798;20.366;2022-09-03T12:17:06;3.28;;;2.10;;
43793;SDS011;29414;44.798;20.366;2022-09-03T12:21:09;3.45;;;2.17;;
43793;SDS011;29414;44.798;20.366;2022-09-03T12:25:13;4.90;;;2.05;;
43793;SDS011;29414;44.798;20.366;2022-09-03T12:29:21;4.28;;;2.20;;
43793;SDS011;29414;44.798;20.366;2022-09-03T12:33:22;4.05;;;2.05;;
43793;SDS011;29414;44.798;20.366;2022-09-03T12:37:23;5.45;;;2.88;;
43793;SDS011;29414;44.798;20.366;2022-09-03T12:41:25;2.88;;;2.33;;
43793;SDS011;29414;44.798;20.366;2022-09-03T12:45:26;3.85;;;1.90;;
43793;SDS011;29414;44.798;20.366;2022-09-03T12:49:26;4.00;;;2.17;;
43793;SDS011;29414;44.798;20.366;2022-09-03T12:53:27;5.90;;;1.60;;
43793;SDS011;29414;44.798;20.366;2022-09-03T12:57:29;3.03;;;2.28;;
43793;SDS011;29414;44.798;20.366;2022-09-03T13:01:33;7.90;;;2.03;;
43793;SDS011;29414;44.798;20.366;2022-09-03T13:05:40;2.22;;;1.83;;
43793;SDS011;29414;44.798;20.366;2022-09-03T13:09:47;3.35;;;2.20;;
43793;SDS011;29414;44.798;20.366;2022-09-03T13:13:59;2.63;;;2.22;;
43793;SDS011;29414;44.798;20.366;2022-09-03T13:22:11;3.28;;;2.33;;
43793;SDS011;29414;44.798;20.366;2022-09-03T13:30:36;2.55;;;1.98;;
43793;SDS011;29414;44.798;20.366;2022-09-03T13:34:41;3.80;;;2.40;;
43793;SDS011;29414;44.798;20.366;2022-09-03T13:38:47;7.00;;;2.55;;
43793;SDS011;29414;44.798;20.366;2022-09-03T13:42:52;3.47;;;2.23;;
43793;SDS011;29414;44.798;20.366;2022-09-03T13:46:55;5.38;;;2.70;;
43793;SDS011;29414;44.798;20.366;2022-09-03T13:51:12;3.85;;;2.90;;
43793;SDS011;29414;44.798;20.366;2022-09-03T14:03:31;3.22;;;2.90;;
43793;SDS011;29414;44.798;20.366;2022-09-03T14:20:28;5.43;;;2.92;;
43793;SDS011;29414;44.798;20.366;2022-09-03T14:24:42;3.33;;;3.00;;
43793;SDS011;29414;44.798;20.366;2022-09-03T14:28:45;2.85;;;2.53;;
43793;SDS011;29414;44.798;20.366;2022-09-03T14:36:54;4.85;;;2.75;;
43793;SDS011;29414;44.798;20.366;2022-09-03T14:53:47;7.53;;;2.97;;
43793;SDS011;29414;44.798;20.366;2022-09-03T15:10:17;3.95;;;3.22;;
43793;SDS011;29414;44.798;20.366;2022-09-03T15:14:25;6.20;;;2.78;;
43793;SDS011;29414;44.798;20.366;2022-09-03T15:18:45;4.05;;;2.92;;
43793;SDS011;29414;44.798;20.366;2022-09-03T15:31:14;5.15;;;3.10;;
43793;SDS011;29414;44.798;20.366;2022-09-03T15:39:35;3.00;;;2.70;;
43793;SDS011;29414;44.798;20.366;2022-09-03T15:43:36;8.93;;;5.53;;
43793;SDS011;29414;44.798;20.366;2022-09-03T15:51:51;3.47;;;3.15;;
43793;SDS011;29414;44.798;20.366;2022-09-03T15:56:29;5.00;;;3.28;;
43793;SDS011;29414;44.798;20.366;2022-09-03T16:00:20;4.57;;;4.03;;
43793;SDS011;29414;44.798;20.366;2022-09-03T16:08:45;5.32;;;4.13;;
43793;SDS011;29414;44.798;20.366;2022-09-03T16:17:04;4.18;;;3.88;;
43793;SDS011;29414;44.798;20.366;2022-09-03T16:21:08;4.93;;;3.95;;
43793;SDS011;29414;44.798;20.366;2022-09-03T16:25:26;5.68;;;4.50;;
43793;SDS011;29414;44.798;20.366;2022-09-03T16:29:29;3.90;;;3.45;;
43793;SDS011;29414;44.798;20.366;2022-09-03T17:06:46;6.53;;;5.72;;
43793;SDS011;29414;44.798;20.366;2022-09-03T17:10:53;7.25;;;5.38;;
43793;SDS011;29414;44.798;20.366;2022-09-03T17:15:19;8.13;;;5.97;;
43793;SDS011;29414;44.798;20.366;2022-09-03T17:19:26;7.07;;;5.05;;
43793;SDS011;29414;44.798;20.366;2022-09-03T17:23:36;8.02;;;6.00;;
43793;SDS011;29414;44.798;20.366;2022-09-03T17:27:49;8.63;;;6.05;;
43793;SDS011;29414;44.798;20.366;2022-09-03T17:40:24;12.57;;;6.50;;
43793;SDS011;29414;44.798;20.366;2022-09-03T17:49:28;10.18;;;6.93;;
43793;SDS011;29414;44.798;20.366;2022-09-03T17:52:59;12.40;;;6.68;;
43793;SDS011;29414;44.798;20.366;2022-09-03T17:57:14;16.02;;;6.55;;
43793;SDS011;29414;44.798;20.366;2022-09-03T18:01:23;10.55;;;8.32;;
43793;SDS011;29414;44.798;20.366;2022-09-03T18:05:29;10.90;;;7.60;;
43793;SDS011;29414;44.798;20.366;2022-09-03T18:09:34;13.70;;;7.72;;
43793;SDS011;29414;44.798;20.366;2022-09-03T18:17:44;12.85;;;6.70;;
43793;SDS011;29414;44.798;20.366;2022-09-03T18:26:11;11.80;;;6.88;;
43793;SDS011;29414;44.798;20.366;2022-09-03T18:30:32;15.55;;;9.13;;
43793;SDS011;29414;44.798;20.366;2022-09-03T18:34:52;13.90;;;7.25;;
43793;SDS011;29414;44.798;20.366;2022-09-03T18:39:13;9.00;;;6.80;;
43793;SDS011;29414;44.798;20.366;2022-09-03T18:43:38;12.68;;;7.47;;
43793;SDS011;29414;44.798;20.366;2022-09-03T18:48:15;8.95;;;6.70;;
43793;SDS011;29414;44.798;20.366;2022-09-03T18:56:57;9.98;;;7.70;;
43793;SDS011;29414;44.798;20.366;2022-09-03T19:10:25;7.95;;;7.10;;
43793;SDS011;29414;44.798;20.366;2022-09-03T19:23:31;9.75;;;6.70;;
43793;SDS011;29414;44.798;20.366;2022-09-03T19:32:39;8.50;;;7.68;;
43793;SDS011;29414;44.798;20.366;2022-09-03T19:37:16;12.30;;;7.25;;
43793;SDS011;29414;44.798;20.366;2022-09-03T19:41:43;9.68;;;6.53;;
43793;SDS011;29414;44.798;20.366;2022-09-03T19:46:21;11.15;;;7.45;;
43793;SDS011;29414;44.798;20.366;2022-09-03T19:50:43;11.45;;;7.68;;
43793;SDS011;29414;44.798;20.366;2022-09-03T19:55:03;16.20;;;7.80;;
43793;SDS011;29414;44.798;20.366;2022-09-03T19:59:22;9.15;;;7.68;;
43793;SDS011;29414;44.798;20.366;2022-09-03T20:03:42;11.70;;;8.70;;
43793;SDS011;29414;44.798;20.366;2022-09-03T20:08:01;10.82;;;7.95;;
43793;SDS011;29414;44.798;20.366;2022-09-03T20:12:20;9.85;;;8.23;;
43793;SDS011;29414;44.798;20.366;2022-09-03T20:16:28;10.35;;;9.25;;
43793;SDS011;29414;44.798;20.366;2022-09-03T20:20:31;16.08;;;9.23;;
43793;SDS011;29414;44.798;20.366;2022-09-03T20:45:36;16.40;;;11.05;;
43793;SDS011;29414;44.798;20.366;2022-09-03T20:53:40;16.60;;;11.30;;
43793;SDS011;29414;44.798;20.366;2022-09-03T20:57:46;15.15;;;10.93;;
43793;SDS011;29414;44.798;20.366;2022-09-03T21:26:26;14.30;;;10.20;;
43793;SDS011;29414;44.798;20.366;2022-09-03T21:30:27;11.20;;;10.10;;
43793;SDS011;29414;44.798;20.366;2022-09-03T21:38:48;11.00;;;8.95;;
43793;SDS011;29414;44.798;20.366;2022-09-03T21:42:58;13.57;;;9.90;;
43793;SDS011;29414;44.798;20.366;2022-09-03T21:47:18;11.35;;;10.15;;
43793;SDS011;29414;44.798;20.366;2022-09-03T22:03:36;19.90;;;14.02;;
43793;SDS011;29414;44.798;20.366;2022-09-03T22:07:41;16.63;;;12.15;;
43793;SDS011;29414;44.798;20.366;2022-09-03T22:20:07;12.98;;;11.68;;
43793;SDS011;29414;44.798;20.366;2022-09-03T22:42:37;17.73;;;14.50;;
43793;SDS011;29414;44.798;20.366;2022-09-03T22:46:13;14.38;;;13.15;;
43793;SDS011;29414;44.798;20.366;2022-09-03T22:55:09;19.63;;;13.82;;
43793;SDS011;29414;44.798;20.366;2022-09-03T23:03:15;17.40;;;13.27;;
43793;SDS011;29414;44.798;20.366;2022-09-03T23:07:22;17.52;;;15.73;;
43793;SDS011;29414;44.798;20.366;2022-09-03T23:11:25;17.10;;;14.88;;
43793;SDS011;29414;44.798;20.366;2022-09-03T23:15:26;17.63;;;15.85;;
43793;SDS011;29414;44.798;20.366;2022-09-03T23:19:36;18.88;;;17.02;;
43793;SDS011;29414;44.798;20.366;2022-09-03T23:23:44;19.60;;;17.80;;
43793;SDS011;29414;44.798;20.366;2022-09-03T23:31:46;21.64;;;19.72;;
43793;SDS011;29414;44.798;20.366;2022-09-03T23:35:55;20.55;;;18.70;;
43793;SDS011;29414;44.798;20.366;2022-09-03T23:52:46;22.17;;;19.88;;
43793;SDS011;29414;44.798;20.366;2022-09-03T23:57:01;23.17;;;21.25;;
